Time;durP1;ratioP1;P1;durP2;ratioP2;P2;SDS_P1;SDS_P2;PMS_P1;PMS_P2;Temp;Humidity;BMP_temperature;BMP_pressure;BME280_temperature;BME280_humidity;BME280_pressure;Samples;Min_cycle;Max_cycle;Signal;HPM_P1;HPM_P2
2022/10/21 00:01:27;;;;;;;44.95;24.88;;;;;;;;;;4937568;29;20043;-66
2022/10/21 00:03:53;;;;;;;43.67;22.83;;;12.60;99.90;;;;;;4937169;29;20189;-66
2022/10/21 00:06:19;;;;;;;39.63;25.42;;;12.80;99.90;;;;;;4937265;29;20039;-67
2022/10/21 00:08:45;;;;;;;36.72;22.42;;;;;;;;;;4955099;29;20117;-68
2022/10/21 00:11:10;;;;;;;48.63;24.17;;;12.60;99.90;;;;;;4921726;29;20043;-66
2022/10/21 00:13:40;;;;;;;47.92;23.95;;;12.60;99.90;;;;;;4921518;29;20047;-66
2022/10/21 00:16:14;;;;;;;42.03;24.95;;;12.50;99.90;;;;;;4954600;29;20122;-66
2022/10/21 00:18:41;;;;;;;41.50;22.52;;;12.50;99.90;;;;;;4937360;29;20225;-66
2022/10/21 00:21:13;;;;;;;38.38;24.00;;;12.40;99.90;;;;;;4937697;29;20050;-66
2022/10/21 00:23:39;;;;;;;43.03;23.35;;;;;;;;;;4954473;29;20043;-66
2022/10/21 00:26:05;;;;;;;42.05;22.83;;;12.60;99.90;;;;;;4921349;29;20054;-66
2022/10/21 00:28:31;;;;;;;43.83;23.48;;;12.60;99.90;;;;;;4924060;29;20043;-66
2022/10/21 00:30:57;;;;;;;50.03;25.35;;;12.60;99.90;;;;;;4954591;28;20413;-66
2022/10/21 00:33:23;;;;;;;47.67;24.88;;;12.50;99.90;;;;;;4954440;28;20039;-66
2022/10/21 00:35:56;;;;;;;43.60;23.98;;;12.60;99.90;;;;;;4941108;29;20549;-66
2022/10/21 00:38:22;;;;;;;41.47;24.30;;;12.60;99.90;;;;;;4937391;29;20055;-66
2022/10/21 00:40:48;;;;;;;46.78;24.83;;;12.60;99.90;;;;;;4954169;29;20032;-66
2022/10/21 00:43:14;;;;;;;43.67;22.80;;;12.60;99.90;;;;;;4921335;28;20449;-66
2022/10/21 00:45:40;;;;;;;44.85;24.42;;;12.40;99.90;;;;;;4937437;29;20039;-66
2022/10/21 00:48:17;;;;;;;46.47;24.58;;;12.50;99.90;;;;;;4937178;29;20569;-66
2022/10/21 00:50:58;;;;;;;47.78;24.45;;;12.70;99.90;;;;;;4937232;29;20062;-66
2022/10/21 00:53:24;;;;;;;48.05;24.90;;;12.50;99.90;;;;;;4954110;29;20046;-66
2022/10/21 00:55:55;;;;;;;46.22;24.40;;;12.60;99.90;;;;;;4954194;28;20168;-66
2022/10/21 00:58:25;;;;;;;41.95;24.02;;;12.50;99.90;;;;;;4954600;29;20049;-66
2022/10/21 01:00:54;;;;;;;44.08;23.90;;;12.50;99.90;;;;;;4936958;29;20039;-66
2022/10/21 01:03:22;;;;;;;42.20;23.95;;;12.60;99.90;;;;;;4937470;29;20083;-65
2022/10/21 01:05:49;;;;;;;42.53;23.55;;;12.50;99.90;;;;;;4957488;29;20091;-66
2022/10/21 01:08:14;;;;;;;44.58;24.67;;;12.50;99.90;;;;;;4941067;29;20379;-66
2022/10/21 01:10:40;;;;;;;44.03;24.10;;;12.40;99.90;;;;;;4957823;29;20093;-65
2022/10/21 01:13:06;;;;;;;43.83;24.27;;;;;;;;;;4940465;29;20055;-66
2022/10/21 01:15:54;;;;;;;46.47;25.67;;;12.50;99.90;;;;;;4924549;29;20065;-65
2022/10/21 01:18:20;;;;;;;40.97;22.77;;;;;;;;;;4940389;29;20051;-66
2022/10/21 01:20:59;;;;;;;44.50;24.60;;;12.30;99.90;;;;;;4957841;29;20051;-65
2022/10/21 01:23:58;;;;;;;43.47;25.10;;;12.30;99.90;;;;;;4940322;29;20410;-65
2022/10/21 01:26:39;;;;;;;38.90;22.88;;;12.40;99.90;;;;;;4924369;29;20047;-65
2022/10/21 01:29:23;;;;;;;45.08;25.17;;;12.40;99.90;;;;;;4940388;29;20047;-65
2022/10/21 01:32:06;;;;;;;46.50;24.63;;;12.20;99.90;;;;;;4940368;29;20086;-66
2022/10/21 01:34:32;;;;;;;43.60;24.98;;;;;;;;;;4940303;29;20039;-65
2022/10/21 01:37:10;;;;;;;45.53;24.27;;;12.50;99.90;;;;;;4940213;29;20572;-65
2022/10/21 01:39:36;;;;;;;45.40;24.73;;;;;;;;;;4940279;29;20061;-66
2022/10/21 01:42:21;;;;;;;45.55;25.33;;;12.40;99.90;;;;;;4956888;29;20545;-66
2022/10/21 01:45:09;;;;;;;45.78;24.48;;;12.60;99.90;;;;;;4923958;29;20038;-66
2022/10/21 01:47:43;;;;;;;44.00;24.73;;;12.50;99.90;;;;;;4939863;29;20078;-66
2022/10/21 01:50:17;;;;;;;45.25;25.83;;;12.60;99.90;;;;;;4939628;28;20095;-65
2022/10/21 01:52:46;;;;;;;45.83;24.92;;;12.60;99.90;;;;;;4940140;29;20058;-65
2022/10/21 01:55:18;;;;;;;45.78;24.88;;;12.70;99.90;;;;;;4939685;29;20059;-65
2022/10/21 01:57:50;;;;;;;45.03;24.15;;;12.80;99.90;;;;;;4939823;29;20051;-66
2022/10/21 02:00:16;;;;;;;43.75;24.42;;;12.70;99.90;;;;;;4939594;29;20054;-66
2022/10/21 02:02:46;;;;;;;45.58;24.23;;;12.70;99.90;;;;;;4956895;29;20143;-65
2022/10/21 02:05:24;;;;;;;43.58;24.10;;;12.80;99.90;;;;;;4923851;29;20379;-65
2022/10/21 02:07:50;;;;;;;42.33;22.10;;;;;;;;;;4939700;29;20043;-65
2022/10/21 02:10:17;;;;;;;33.78;19.60;;;13.10;99.90;;;;;;4956549;29;20049;-65
2022/10/21 02:12:46;;;;;;;45.00;21.45;;;13.30;99.90;;;;;;4939300;28;20072;-66
2022/10/21 02:15:14;;;;;;;36.70;18.05;;;13.40;99.90;;;;;;4939059;29;20043;-66
2022/10/21 02:17:46;;;;;;;38.58;21.55;;;13.50;99.90;;;;;;4956580;29;20046;-65
2022/10/21 02:20:13;;;;;;;32.92;17.50;;;13.50;99.90;;;;;;4956088;29;20418;-66
2022/10/21 02:22:41;;;;;;;27.77;15.13;;;13.60;99.90;;;;;;4938809;29;20525;-66
2022/10/21 02:25:18;;;;;;;29.98;16.33;;;13.60;99.90;;;;;;4954207;28;20067;-65
2022/10/21 02:27:44;;;;;;;38.72;18.75;;;;;;;;;;4939363;29;20043;-66
2022/10/21 02:30:11;;;;;;;38.85;18.88;;;13.70;99.90;;;;;;4938853;29;20043;-66
2022/10/21 02:32:47;;;;;;;48.00;20.50;;;13.70;99.90;;;;;;4956205;29;20047;-66
2022/10/21 02:35:36;;;;;;;42.25;21.83;;;13.70;99.90;;;;;;4923366;29;20126;-66
2022/10/21 02:38:08;;;;;;;56.28;25.92;;;13.60;99.90;;;;;;4947873;29;20518;-66
2022/10/21 02:40:43;;;;;;;49.28;23.90;;;13.50;99.90;;;;;;4938695;29;20051;-65
2022/10/21 02:43:16;;;;;;;48.55;25.95;;;13.70;99.90;;;;;;4955878;29;20070;-66
2022/10/21 02:45:45;;;;;;;52.80;25.20;;;13.60;99.90;;;;;;4938930;29;20047;-65
2022/10/21 02:48:11;;;;;;;54.65;24.70;;;13.50;99.90;;;;;;4955809;29;20371;-67
2022/10/21 02:50:36;;;;;;;52.22;26.92;;;13.50;99.90;;;;;;4938908;28;20053;-65
2022/10/21 02:53:02;;;;;;;54.63;27.17;;;13.50;99.90;;;;;;4956004;28;20490;-66
2022/10/21 02:55:28;;;;;;;53.13;27.17;;;;;;;;;;4955620;29;20051;-65
2022/10/21 02:57:53;;;;;;;57.42;26.00;;;13.50;99.90;;;;;;4938585;29;20062;-66
2022/10/21 03:00:19;;;;;;;57.83;27.48;;;13.40;99.90;;;;;;4938577;29;20051;-65
2022/10/21 03:02:45;;;;;;;52.08;27.10;;;;;;;;;;4938439;29;20047;-66
2022/10/21 03:05:11;;;;;;;55.30;27.85;;;13.30;99.90;;;;;;4938808;29;20050;-65
2022/10/21 03:07:38;;;;;;;58.15;27.50;;;13.40;99.90;;;;;;4922529;29;20061;-66
2022/10/21 03:10:04;;;;;;;54.53;28.15;;;;;;;;;;4955600;28;20119;-66
2022/10/21 03:12:29;;;;;;;48.88;28.10;;;13.30;99.90;;;;;;4938268;29;20545;-65
2022/10/21 03:14:55;;;;;;;54.35;27.00;;;13.50;99.90;;;;;;4938505;29;20126;-65
2022/10/21 03:17:21;;;;;;;63.13;29.50;;;;;;;;;;4955355;29;20549;-66
2022/10/21 03:19:47;;;;;;;58.63;28.67;;;;;;;;;;4955314;28;20401;-66
2022/10/21 03:22:13;;;;;;;58.03;27.98;;;;;;;;;;4938133;29;20050;-66
2022/10/21 03:24:38;;;;;;;64.05;28.38;;;13.30;99.90;;;;;;4955097;29;20038;-66
2022/10/21 03:27:05;;;;;;;58.17;27.85;;;;;;;;;;4954424;28;20486;-65
2022/10/21 03:29:30;;;;;;;57.47;30.08;;;;;;;;;;4938033;29;20393;-65
2022/10/21 03:31:56;;;;;;;51.15;27.08;;;;;;;;;;4937439;29;20043;-66
2022/10/21 03:34:22;;;;;;;50.60;27.27;;;13.30;99.90;;;;;;4937428;29;20414;-65
2022/10/21 03:36:48;;;;;;;58.70;28.67;;;;;;;;;;4922040;29;20035;-65
2022/10/21 03:39:14;;;;;;;55.42;28.70;;;;;;;;;;4938083;29;20126;-65
2022/10/21 03:41:39;;;;;;;59.00;28.33;;;13.30;99.90;;;;;;4906339;29;20046;-65
2022/10/21 03:44:05;;;;;;;55.13;26.20;;;13.40;99.90;;;;;;4937665;29;20102;-65
2022/10/21 03:46:31;;;;;;;54.28;27.13;;;13.40;99.90;;;;;;4937795;29;20051;-65
2022/10/21 03:48:56;;;;;;;55.42;26.38;;;13.30;99.90;;;;;;4937720;29;20039;-65
2022/10/21 03:51:22;;;;;;;54.92;27.30;;;;;;;;;;4937642;29;20486;-65
2022/10/21 03:53:48;;;;;;;55.65;29.48;;;13.30;99.90;;;;;;4937434;29;20426;-66
2022/10/21 03:56:14;;;;;;;58.70;29.45;;;;;;;;;;4937508;29;20114;-66
2022/10/21 03:58:40;;;;;;;50.83;26.73;;;;;;;;;;4937577;29;20055;-65
2022/10/21 04:01:09;;;;;;;64.68;29.23;;;13.20;99.90;;;;;;4937866;29;20070;-65
2022/10/21 04:03:35;;;;;;;53.22;27.42;;;13.40;99.90;;;;;;4954561;28;20043;-66
2022/10/21 04:06:01;;;;;;;50.78;24.70;;;;;;;;;;4937504;29;20039;-66
2022/10/21 04:08:27;;;;;;;60.05;28.52;;;;;;;;;;4954380;28;20070;-66
2022/10/21 04:10:55;;;;;;;53.58;27.73;;;13.30;99.90;;;;;;4954644;29;20512;-66
2022/10/21 04:13:21;;;;;;;56.00;27.45;;;13.40;99.90;;;;;;4937726;29;20051;-66
2022/10/21 04:15:46;;;;;;;52.80;27.45;;;;;;;;;;4937467;29;20490;-65
2022/10/21 04:18:12;;;;;;;54.58;26.55;;;13.40;99.90;;;;;;4936870;29;20490;-66
2022/10/21 04:20:38;;;;;;;53.28;26.75;;;13.50;99.90;;;;;;4954866;28;20099;-66
2022/10/21 04:23:03;;;;;;;52.42;26.48;;;13.30;99.90;;;;;;4937331;29;20517;-65
2022/10/21 04:25:29;;;;;;;56.88;27.90;;;13.40;99.90;;;;;;4954481;29;20402;-65
2022/10/21 04:27:54;;;;;;;53.03;26.40;;;13.30;99.90;;;;;;4921519;29;20086;-65
2022/10/21 04:30:20;;;;;;;51.70;26.80;;;13.30;99.90;;;;;;4937028;29;20039;-65
2022/10/21 04:32:46;;;;;;;55.30;27.67;;;;;;;;;;4954106;29;20047;-66
2022/10/21 04:35:11;;;;;;;58.92;26.38;;;13.40;99.90;;;;;;4954736;28;20144;-65
2022/10/21 04:37:42;;;;;;;54.58;27.40;;;;;;;;;;4955626;28;20039;-65
2022/10/21 04:40:08;;;;;;;52.58;26.67;;;;;;;;;;4928244;29;20039;-65
2022/10/21 04:42:34;;;;;;;61.38;28.13;;;13.40;99.90;;;;;;4940963;29;20055;-65
2022/10/21 04:45:00;;;;;;;56.50;26.23;;;;;;;;;;4940914;29;20383;-65
2022/10/21 04:47:25;;;;;;;57.88;27.98;;;13.30;99.90;;;;;;4958182;29;20122;-65
2022/10/21 04:49:51;;;;;;;56.80;26.92;;;13.40;99.90;;;;;;4941079;29;20043;-65
2022/10/21 04:52:17;;;;;;;59.35;27.95;;;;;;;;;;4940951;29;20039;-66
2022/10/21 04:54:42;;;;;;;52.47;27.38;;;13.60;99.90;;;;;;4940599;28;20051;-65
2022/10/21 04:57:08;;;;;;;53.35;26.63;;;;;;;;;;4925077;29;20406;-65
2022/10/21 04:59:34;;;;;;;57.28;28.17;;;;;;;;;;4958007;28;20082;-65
2022/10/21 05:02:00;;;;;;;60.67;28.55;;;13.60;99.90;;;;;;4924925;29;20091;-65
2022/10/21 05:04:26;;;;;;;57.95;26.92;;;;;;;;;;4940381;28;20105;-65
2022/10/21 05:06:52;;;;;;;60.05;28.30;;;;;;;;;;4958057;29;20046;-65
2022/10/21 05:09:18;;;;;;;56.60;29.23;;;;;;;;;;4957575;28;20031;-65
2022/10/21 05:11:43;;;;;;;59.17;28.05;;;13.30;99.90;;;;;;4940321;29;20179;-65
2022/10/21 05:14:09;;;;;;;55.20;25.75;;;13.20;99.90;;;;;;4940396;29;20050;-65
2022/10/21 05:16:34;;;;;;;57.85;28.20;;;13.20;99.90;;;;;;4940562;29;20035;-65
2022/10/21 05:19:00;;;;;;;57.80;27.58;;;13.20;99.90;;;;;;4948705;28;20035;-64
2022/10/21 05:21:26;;;;;;;60.75;28.60;;;;;;;;;;4934398;29;20493;-64
2022/10/21 05:23:51;;;;;;;66.60;28.70;;;13.10;99.90;;;;;;4939249;28;20152;-64
2022/10/21 05:26:17;;;;;;;61.05;29.25;;;;;;;;;;4918781;29;20050;-64
2022/10/21 05:28:43;;;;;;;54.60;28.23;;;13.20;99.90;;;;;;4940032;29;20058;-64
2022/10/21 05:31:08;;;;;;;65.28;28.90;;;13.20;99.90;;;;;;4939939;29;20123;-64
2022/10/21 05:33:34;;;;;;;58.58;27.38;;;13.20;99.90;;;;;;4939908;29;20042;-64
2022/10/21 05:36:06;;;;;;;61.17;27.85;;;13.30;99.90;;;;;;4957196;29;20047;-65
2022/10/21 05:38:32;;;;;;;60.05;29.75;;;13.10;99.90;;;;;;4957076;28;20509;-64
2022/10/21 05:40:58;;;;;;;62.63;29.50;;;13.30;99.90;;;;;;4940406;29;20141;-64
2022/10/21 05:43:24;;;;;;;62.38;29.83;;;13.00;99.90;;;;;;4938977;29;20051;-63
2022/10/21 05:45:50;;;;;;;67.13;29.02;;;13.00;99.90;;;;;;4957048;29;20043;-64
2022/10/21 05:48:19;;;;;;;60.65;28.83;;;13.00;99.90;;;;;;4957261;29;20050;-63
2022/10/21 05:50:45;;;;;;;65.07;28.05;;;13.00;99.90;;;;;;4938770;28;20506;-63
2022/10/21 05:53:12;;;;;;;61.50;28.08;;;13.00;99.90;;;;;;4956074;28;20043;-63
2022/10/21 05:55:37;;;;;;;61.17;27.80;;;12.90;99.90;;;;;;4955915;28;20059;-63
2022/10/21 05:58:03;;;;;;;62.53;28.42;;;13.10;99.90;;;;;;4955535;28;20089;-64
2022/10/21 06:00:28;;;;;;;67.75;30.20;;;12.80;99.90;;;;;;4938466;28;20126;-64
2022/10/21 06:02:54;;;;;;;64.10;29.80;;;13.00;99.90;;;;;;4953543;28;20082;-60
2022/10/21 06:05:20;;;;;;;60.38;29.63;;;12.90;99.90;;;;;;4956546;29;20449;-62
2022/10/21 06:07:46;;;;;;;63.85;29.50;;;12.90;99.90;;;;;;4956525;29;20519;-63
2022/10/21 06:10:11;;;;;;;65.22;30.33;;;12.90;99.90;;;;;;4943395;29;20046;-64
2022/10/21 06:12:38;;;;;;;56.80;28.80;;;12.90;99.90;;;;;;4956090;28;20494;-63
2022/10/21 06:15:04;;;;;;;64.00;30.88;;;12.80;99.90;;;;;;4942471;29;20508;-64
2022/10/21 06:17:29;;;;;;;57.88;27.40;;;12.80;99.90;;;;;;4923270;29;20509;-62
2022/10/21 06:19:55;;;;;;;68.07;29.58;;;12.90;99.90;;;;;;4938420;28;20137;-64
2022/10/21 06:22:20;;;;;;;57.42;27.90;;;12.90;99.90;;;;;;4939181;29;20110;-66
2022/10/21 06:24:46;;;;;;;57.50;27.05;;;12.90;99.90;;;;;;4938832;29;20047;-64
2022/10/21 06:27:12;;;;;;;61.13;27.88;;;12.90;99.90;;;;;;4939244;29;20050;-64
2022/10/21 06:29:38;;;;;;;53.83;28.35;;;13.00;99.90;;;;;;4938805;29;20047;-65
2022/10/21 06:32:03;;;;;;;57.42;27.42;;;12.80;99.90;;;;;;4955725;29;20046;-64
2022/10/21 06:34:29;;;;;;;51.30;26.23;;;12.90;99.90;;;;;;4955401;28;20031;-65
2022/10/21 06:36:54;;;;;;;55.70;26.35;;;12.80;99.90;;;;;;4938572;29;20039;-64
2022/10/21 06:39:20;;;;;;;55.33;26.20;;;12.70;99.90;;;;;;4956118;29;20071;-62
2022/10/21 06:41:46;;;;;;;59.35;27.25;;;12.80;99.90;;;;;;4955796;28;20043;-64
2022/10/21 06:44:11;;;;;;;48.63;25.33;;;12.80;99.90;;;;;;4921354;29;20043;-63
2022/10/21 06:46:37;;;;;;;51.97;24.67;;;12.80;99.90;;;;;;4954951;29;20082;-64
2022/10/21 06:49:02;;;;;;;53.10;27.02;;;12.90;99.90;;;;;;4937067;28;20066;-65
2022/10/21 06:51:28;;;;;;;52.42;26.48;;;12.80;99.90;;;;;;4955165;28;20031;-65
2022/10/21 06:53:56;;;;;;;53.75;26.15;;;12.80;99.90;;;;;;4937959;29;20054;-64
2022/10/21 06:56:23;;;;;;;57.55;26.17;;;12.80;99.90;;;;;;4955441;29;20063;-63
2022/10/21 06:58:49;;;;;;;48.92;24.60;;;12.80;99.90;;;;;;4951067;29;20031;-64
2022/10/21 07:01:24;;;;;;;53.20;26.17;;;12.90;99.90;;;;;;4955039;28;20047;-65
2022/10/21 07:03:50;;;;;;;46.78;24.63;;;12.90;99.90;;;;;;4935954;29;20039;-65
2022/10/21 07:06:16;;;;;;;49.97;24.10;;;12.80;99.90;;;;;;4936060;29;20054;-65
2022/10/21 07:08:45;;;;;;;43.05;23.50;;;12.70;99.90;;;;;;4936537;29;20035;-64
2022/10/21 07:11:13;;;;;;;41.95;23.92;;;12.80;99.90;;;;;;4954415;29;20042;-65
2022/10/21 07:13:38;;;;;;;40.60;23.05;;;12.70;99.90;;;;;;4936487;29;20285;-63
2022/10/21 07:16:12;;;;;;;45.20;22.85;;;12.80;99.90;;;;;;4918660;28;20047;-63
2022/10/21 07:18:38;;;;;;;41.88;22.17;;;;;;;;;;4936749;29;20047;-63
2022/10/21 07:21:06;;;;;;;44.67;22.63;;;12.90;99.90;;;;;;4939015;29;20050;-64
2022/10/21 07:23:32;;;;;;;40.22;21.95;;;;;;;;;;4919408;29;20126;-65
2022/10/21 07:25:58;;;;;;;38.63;22.23;;;;;;;;;;4954101;28;20139;-65
2022/10/21 07:28:24;;;;;;;40.22;21.33;;;13.00;99.90;;;;;;4931376;29;20043;-64
2022/10/21 07:30:49;;;;;;;38.88;21.83;;;13.00;99.90;;;;;;4953857;29;20035;-62
2022/10/21 07:33:15;;;;;;;32.40;19.70;;;12.90;99.90;;;;;;4953385;28;20094;-64
2022/10/21 07:35:41;;;;;;;42.83;21.90;;;;;;;;;;4936974;29;20039;-65
2022/10/21 07:38:06;;;;;;;39.45;21.90;;;13.00;99.90;;;;;;4937149;29;20110;-66
2022/10/21 07:40:38;;;;;;;34.78;20.85;;;13.20;99.90;;;;;;4937244;29;20508;-63
2022/10/21 07:43:04;;;;;;;37.63;21.27;;;;;;;;;;4952060;29;20043;-63
2022/10/21 07:45:29;;;;;;;38.80;22.02;;;13.10;99.90;;;;;;4950026;29;20043;-66
2022/10/21 07:47:55;;;;;;;40.55;22.13;;;13.30;99.90;;;;;;4953873;28;20043;-66
2022/10/21 07:50:21;;;;;;;40.20;21.00;;;;;;;;;;4941290;28;20123;-66
2022/10/21 07:52:46;;;;;;;36.65;20.15;;;13.40;99.90;;;;;;4956505;28;20086;-64
2022/10/21 07:55:13;;;;;;;40.47;21.05;;;13.50;99.90;;;;;;4934164;28;20055;-63
2022/10/21 07:57:39;;;;;;;37.00;20.17;;;13.50;99.90;;;;;;4953718;28;20051;-65
2022/10/21 08:00:06;;;;;;;39.28;19.88;;;13.60;99.90;;;;;;4937954;28;20047;-66
2022/10/21 08:02:32;;;;;;;34.30;18.38;;;;;;;;;;4937728;28;20089;-67
2022/10/21 08:04:58;;;;;;;33.75;19.38;;;13.60;99.90;;;;;;4942211;28;20042;-66
2022/10/21 08:07:24;;;;;;;33.75;19.98;;;;;;;;;;4953564;28;20090;-65
2022/10/21 08:09:50;;;;;;;33.47;18.38;;;13.90;99.90;;;;;;4953763;28;20521;-63
2022/10/21 08:12:16;;;;;;;32.83;19.60;;;;;;;;;;4953347;28;20043;-62
2022/10/21 08:14:42;;;;;;;30.67;20.08;;;14.00;99.90;;;;;;4953570;28;20556;-64
2022/10/21 08:17:08;;;;;;;30.73;18.05;;;13.90;99.90;;;;;;4950661;28;20110;-64
2022/10/21 08:19:34;;;;;;;35.65;18.75;;;14.30;99.90;;;;;;4947864;28;20114;-64
2022/10/21 08:21:59;;;;;;;33.15;19.60;;;13.90;99.90;;;;;;4948012;29;20035;-63
2022/10/21 08:24:25;;;;;;;31.10;19.77;;;14.00;99.90;;;;;;4936721;29;20044;-65
2022/10/21 08:26:51;;;;;;;33.70;18.17;;;14.00;99.90;;;;;;4936942;29;20047;-63
2022/10/21 08:29:17;;;;;;;31.83;18.33;;;14.40;99.90;;;;;;4952588;29;20050;-63
2022/10/21 08:31:42;;;;;;;31.35;18.42;;;14.60;99.90;;;;;;4953804;29;20039;-63
2022/10/21 08:34:09;;;;;;;29.63;18.75;;;14.80;99.90;;;;;;4953894;29;20051;-62
2022/10/21 08:36:35;;;;;;;29.40;16.98;;;15.00;99.90;;;;;;4948734;28;20039;-62
2022/10/21 08:39:01;;;;;;;21.23;14.35;;;;;;;;;;4936554;29;20047;-65
2022/10/21 08:41:37;;;;;;;27.70;15.68;;;15.20;99.90;;;;;;4950069;29;20046;-62
2022/10/21 08:44:18;;;;;;;22.10;13.88;;;15.20;99.90;;;;;;4952012;29;20043;-64
2022/10/21 08:46:54;;;;;;;25.40;15.18;;;15.30;99.90;;;;;;4937238;29;20119;-64
2022/10/21 08:49:33;;;;;;;20.92;13.48;;;15.70;99.90;;;;;;4954376;28;20055;-66
2022/10/21 08:52:04;;;;;;;21.02;14.18;;;16.00;99.90;;;;;;4936705;28;20039;-64
2022/10/21 08:54:47;;;;;;;22.00;13.50;;;16.40;99.90;;;;;;4920835;28;20050;-65
2022/10/21 08:57:13;;;;;;;21.67;11.07;;;;;;;;;;4953355;28;20475;-64
2022/10/21 08:59:42;;;;;;;19.17;12.65;;;16.70;99.90;;;;;;4953780;28;20091;-63
2022/10/21 09:02:28;;;;;;;18.75;12.10;;;17.10;99.90;;;;;;4952547;28;20156;-64
2022/10/21 09:05:22;;;;;;;14.13;10.57;;;17.40;99.90;;;;;;4934924;29;20043;-65
2022/10/21 09:08:05;;;;;;;18.45;10.90;;;18.10;99.90;;;;;;4929393;29;20106;-64
2022/10/21 09:10:59;;;;;;;13.02;9.30;;;18.00;99.90;;;;;;4952107;28;20035;-64
2022/10/21 09:13:51;;;;;;;14.82;9.15;;;17.70;99.90;;;;;;4953337;29;20039;-65
2022/10/21 09:16:18;;;;;;;13.95;9.65;;;17.60;99.90;;;;;;4935524;29;20074;-64
2022/10/21 09:19:18;;;;;;;19.67;10.45;;;17.40;99.90;;;;;;4935948;29;20469;-64
2022/10/21 09:22:17;;;;;;;18.45;10.02;;;17.50;99.90;;;;;;4953252;29;20446;-65
2022/10/21 09:25:07;;;;;;;19.35;10.20;;;17.40;99.90;;;;;;4937470;29;20050;-65
2022/10/21 09:27:33;;;;;;;15.32;9.07;;;17.30;99.90;;;;;;4938639;29;20039;-64
2022/10/21 09:30:01;;;;;;;19.55;9.68;;;17.60;99.90;;;;;;4942446;29;20065;-63
2022/10/21 09:32:33;;;;;;;17.00;10.82;;;17.50;99.90;;;;;;4957467;29;20039;-64
2022/10/21 09:35:07;;;;;;;18.65;9.90;;;17.40;99.90;;;;;;4957112;29;20071;-64
2022/10/21 09:37:48;;;;;;;14.93;10.48;;;17.40;99.90;;;;;;4957076;29;20047;-64
2022/10/21 09:40:18;;;;;;;17.52;10.48;;;17.10;99.90;;;;;;4940042;29;20039;-64
2022/10/21 09:42:44;;;;;;;16.60;10.43;;;17.10;99.90;;;;;;4939616;29;20054;-64
2022/10/21 09:45:32;;;;;;;16.98;10.75;;;16.80;99.90;;;;;;4939890;29;20035;-64
2022/10/21 09:48:16;;;;;;;15.20;10.02;;;16.80;99.90;;;;;;4945063;29;20043;-63
2022/10/21 09:50:43;;;;;;;20.65;11.43;;;16.70;99.90;;;;;;4957121;29;20398;-63
2022/10/21 09:53:18;;;;;;;18.88;10.88;;;16.70;99.90;;;;;;4939547;29;20047;-64
2022/10/21 09:55:46;;;;;;;21.70;11.27;;;16.80;99.90;;;;;;4939743;29;20067;-64
2022/10/21 09:58:43;;;;;;;15.32;10.90;;;16.70;99.90;;;;;;4956629;29;20477;-64
2022/10/21 10:01:16;;;;;;;15.40;10.15;;;16.90;99.90;;;;;;4956731;29;20043;-64
2022/10/21 10:03:45;;;;;;;21.90;10.98;;;16.60;99.90;;;;;;4956843;29;20035;-63
2022/10/21 10:06:11;;;;;;;20.35;10.18;;;16.40;99.90;;;;;;4939545;29;20043;-64
2022/10/21 10:08:43;;;;;;;15.98;10.15;;;16.60;99.90;;;;;;4942822;29;20049;-63
2022/10/21 10:11:08;;;;;;;16.02;9.15;;;16.40;99.90;;;;;;4939438;29;20041;-63
2022/10/21 10:13:42;;;;;;;15.90;10.40;;;16.40;99.90;;;;;;4956274;29;20043;-63
2022/10/21 10:16:14;;;;;;;16.52;9.70;;;16.40;99.90;;;;;;4956717;29;20125;-63
2022/10/21 10:18:40;;;;;;;19.60;9.52;;;16.50;99.90;;;;;;4955752;28;20046;-63
2022/10/21 10:21:17;;;;;;;22.13;9.75;;;16.50;99.90;;;;;;4938601;29;20086;-64
2022/10/21 10:23:47;;;;;;;17.77;9.60;;;16.50;99.90;;;;;;4956254;28;20047;-64
2022/10/21 10:26:27;;;;;;;16.90;8.98;;;16.30;99.90;;;;;;4956247;28;20090;-64
2022/10/21 10:29:27;;;;;;;13.65;8.88;;;16.30;99.90;;;;;;4938971;29;20473;-64
2022/10/21 10:31:56;;;;;;;17.98;10.13;;;16.40;99.90;;;;;;4938273;29;20126;-63
2022/10/21 10:34:35;;;;;;;17.00;10.25;;;16.40;99.90;;;;;;4956485;28;20143;-64
2022/10/21 10:37:20;;;;;;;15.48;9.23;;;16.50;99.90;;;;;;4922810;29;20550;-64
2022/10/21 10:39:49;;;;;;;14.98;9.07;;;16.40;99.90;;;;;;4956188;28;20446;-65
2022/10/21 10:42:21;;;;;;;11.68;7.88;;;16.30;99.90;;;;;;4955930;29;20094;-64
2022/10/21 10:44:53;;;;;;;19.25;8.90;;;16.40;99.90;;;;;;4955681;29;20402;-65
2022/10/21 10:47:29;;;;;;;16.15;7.80;;;16.40;99.90;;;;;;4938810;29;20397;-65
2022/10/21 10:49:55;;;;;;;11.55;7.32;;;16.40;99.90;;;;;;4923011;29;20126;-64
2022/10/21 10:52:23;;;;;;;11.30;7.38;;;16.40;99.90;;;;;;4938560;29;20114;-62
2022/10/21 10:55:10;;;;;;;16.50;8.32;;;16.30;99.90;;;;;;4943038;29;20039;-64
2022/10/21 10:57:40;;;;;;;13.43;7.90;;;16.40;99.90;;;;;;4955310;29;20086;-62
2022/10/21 11:00:15;;;;;;;16.35;8.57;;;16.40;99.90;;;;;;4922738;29;20106;-63
2022/10/21 11:02:48;;;;;;;16.75;7.70;;;16.40;99.90;;;;;;4955909;29;20413;-62
2022/10/21 11:05:19;;;;;;;16.95;9.18;;;16.30;99.90;;;;;;4955674;29;20414;-63
2022/10/21 11:07:53;;;;;;;10.95;6.90;;;16.40;99.90;;;;;;4955111;29;20040;-63
2022/10/21 11:10:43;;;;;;;17.92;8.55;;;16.50;99.90;;;;;;4938330;29;20123;-63
2022/10/21 11:13:21;;;;;;;14.93;7.97;;;16.50;99.90;;;;;;4940520;29;20054;-64
2022/10/21 11:16:04;;;;;;;13.02;7.68;;;16.40;99.90;;;;;;4955106;29;20039;-64
2022/10/21 11:18:30;;;;;;;11.55;7.63;;;16.30;99.90;;;;;;4938213;28;20140;-66
2022/10/21 11:21:17;;;;;;;14.63;7.35;;;16.40;99.90;;;;;;4926020;28;20043;-65
2022/10/21 11:23:53;;;;;;;15.15;7.13;;;16.30;99.90;;;;;;4935343;28;20055;-65
2022/10/21 11:26:37;;;;;;;12.35;7.30;;;16.40;99.90;;;;;;4937608;28;20050;-65
2022/10/21 11:29:53;;;;;;;13.38;7.13;;;16.40;99.90;;;;;;4937528;28;20090;-66
2022/10/21 11:32:26;;;;;;;12.68;7.93;;;16.50;99.90;;;;;;4875941;29;20558;-64
2022/10/21 11:35:07;;;;;;;19.48;8.18;;;16.50;99.90;;;;;;4861298;29;20093;-64
2022/10/21 11:37:56;;;;;;;15.38;7.75;;;16.40;99.90;;;;;;4927126;28;20059;-64
2022/10/21 11:40:47;;;;;;;15.20;7.20;;;16.60;99.90;;;;;;4927504;28;20065;-65
2022/10/21 11:43:29;;;;;;;13.40;7.78;;;16.50;99.90;;;;;;4954485;28;20036;-63
2022/10/21 11:46:24;;;;;;;14.77;7.78;;;16.70;99.90;;;;;;4954398;28;20426;-64
2022/10/21 11:49:08;;;;;;;13.80;6.68;;;16.80;99.90;;;;;;4936850;28;20047;-64
2022/10/21 11:51:45;;;;;;;17.05;7.60;;;16.50;99.90;;;;;;4937596;29;20047;-64
2022/10/21 11:54:36;;;;;;;15.23;7.57;;;16.60;99.90;;;;;;4935602;28;20510;-65
2022/10/21 11:57:24;;;;;;;12.20;6.95;;;16.50;99.90;;;;;;4936408;28;20047;-65
2022/10/21 12:00:00;;;;;;;11.50;7.20;;;16.60;99.90;;;;;;4935897;28;20417;-65
2022/10/21 12:02:29;;;;;;;13.13;6.57;;;16.60;99.90;;;;;;4933483;28;20043;-64
2022/10/21 12:05:18;;;;;;;12.80;6.95;;;16.50;99.90;;;;;;4935872;29;20050;-64
2022/10/21 12:08:12;;;;;;;15.00;6.88;;;16.60;99.90;;;;;;4919872;29;20066;-63
2022/10/21 12:10:58;;;;;;;13.30;7.53;;;16.70;99.90;;;;;;4936382;29;20063;-63
2022/10/21 12:13:30;;;;;;;11.07;6.45;;;16.40;99.90;;;;;;4935735;29;20047;-67
2022/10/21 12:16:00;;;;;;;9.63;6.75;;;16.60;99.90;;;;;;4951894;29;20049;-64
2022/10/21 12:18:28;;;;;;;11.73;6.72;;;16.60;99.90;;;;;;4936899;29;20502;-64
2022/10/21 12:20:55;;;;;;;11.85;6.90;;;16.50;99.90;;;;;;4953509;29;20039;-63
2022/10/21 12:23:24;;;;;;;10.77;6.60;;;16.60;99.90;;;;;;4953341;29;20039;-63
2022/10/21 12:26:13;;;;;;;14.80;6.68;;;16.40;99.90;;;;;;4953853;29;20165;-64
2022/10/21 12:28:53;;;;;;;10.10;7.20;;;16.50;99.90;;;;;;4936982;29;20074;-65
2022/10/21 12:31:19;;;;;;;12.13;6.93;;;;;;;;;;4935581;29;20109;-67
2022/10/21 12:33:47;;;;;;;14.20;8.00;;;16.40;99.90;;;;;;4936359;28;20095;-64
2022/10/21 12:36:15;;;;;;;14.15;6.45;;;16.40;99.90;;;;;;4936887;29;20043;-64
2022/10/21 12:38:48;;;;;;;12.07;6.47;;;16.60;99.90;;;;;;4953859;29;20067;-64
2022/10/21 12:41:22;;;;;;;10.65;6.38;;;16.80;99.90;;;;;;4935696;29;20050;-65
2022/10/21 12:44:13;;;;;;;13.25;6.97;;;16.40;99.90;;;;;;4936425;29;20047;-65
2022/10/21 12:46:42;;;;;;;13.60;6.40;;;16.40;99.90;;;;;;4927675;29;20051;-63
2022/10/21 12:49:20;;;;;;;13.88;6.70;;;16.40;99.90;;;;;;4936407;29;20031;-64
2022/10/21 12:52:06;;;;;;;10.57;6.35;;;16.50;99.90;;;;;;4935782;29;20035;-65
2022/10/21 12:55:00;;;;;;;15.40;6.45;;;16.50;99.90;;;;;;4933480;29;20133;-63
2022/10/21 12:57:26;;;;;;;14.90;6.72;;;;;;;;;;4934979;29;20066;-65
2022/10/21 13:00:21;;;;;;;12.00;7.45;;;16.60;99.90;;;;;;4939029;29;20049;-64
2022/10/21 13:03:01;;;;;;;18.55;7.25;;;16.60;99.90;;;;;;4942104;28;20055;-64
2022/10/21 13:05:36;;;;;;;13.98;7.45;;;16.70;99.90;;;;;;4939844;29;20055;-64